Siam — SGIP — position and weather

sailwx.info

Track history (hours):
 
Tides and Currents Weather Stations Pressure Air Temp Water Temp Dewpoint Dewpoint Depression Visibility Wind Speed Wind Dir Waves Ship Positions

Siam

Last reported at 2015-Aug-29 20:33 UTC. Time now 2015-Aug-29 21:04 UTC.
Position N 55°60' E 012°45'.

Length 22 m.

Type: Passenger vessel. MMSI: 265572320.

Date/timePositionNaut miles runAvg speedWind from/ knotsBaromVisibWave heightAir tempDewpointWater temp
2015-Aug-29 20:33N 55°60' E 012°45'0 0.0
2015-Aug-29 19:33N 55°60' E 012°45'0 0.0
2015-Aug-29 18:33N 55°60' E 012°45'0 0.0
2015-Aug-29 17:30N 55°60' E 012°45'0 0.2
2015-Aug-29 16:33N 55°59' E 012°44'5 4.8
2015-Aug-29 15:33N 55°55' E 012°45'1 0.7
2015-Aug-29 14:26N 55°54' E 012°43'1 1.6
2015-Aug-29 13:33N 55°53' E 012°46'1 1.2
2015-Aug-29 12:29N 55°54' E 012°44'4 4.5
2015-Aug-29 11:33N 55°58' E 012°45'1 1.3
2015-Aug-29 10:28N 55°60' E 012°45'3 3.2
2015-Aug-29 09:31N 55°57' E 012°42'1 1.1
2015-Aug-29 08:32N 55°58' E 012°42'1 0.8
2015-Aug-29 07:32N 55°59' E 012°42'0 0.3
2015-Aug-29 06:33N 55°59' E 012°42'2 1.5
2015-Aug-29 05:32N 55°60' E 012°45'0 0.0
2015-Aug-29 04:32N 55°60' E 012°45'0 0.0
2015-Aug-29 03:29N 55°60' E 012°45'0 0.0
2015-Aug-29 02:29N 55°60' E 012°45'0 0.0
2015-Aug-29 01:32N 55°60' E 012°45'0 0.0
2015-Aug-29 00:29N 55°60' E 012°45'0 0.0
2015-Aug-28 23:29N 55°60' E 012°45'0 0.0
2015-Aug-28 22:29N 55°60' E 012°45'0 0.0
2015-Aug-28 21:32N 55°60' E 012°45'0 0.0
2015-Aug-28 20:29N 55°60' E 012°45'0 0.0
2015-Aug-28 19:29N 55°60' E 012°45'0 0.0
2015-Aug-28 18:29N 55°60' E 012°45'0 0.0
2015-Aug-28 17:32N 55°60' E 012°45'0 0.0
2015-Aug-28 16:32N 55°60' E 012°45'0 0.0
2015-Aug-28 15:23N 55°60' E 012°45'0 0.0
2015-Aug-28 14:26N 55°60' E 012°45'0 0.0
2015-Aug-28 13:29N 55°60' E 012°45'0 0.0
2015-Aug-28 12:17N 55°60' E 012°45'4 5.6
2015-Aug-28 11:33N 55°56' E 012°42'0 0.1
2015-Aug-28 10:33N 55°56' E 012°42'0 0.3
2015-Aug-28 09:32N 55°56' E 012°41'1 0.8
2015-Aug-28 08:33N 55°56' E 012°42'1 0.6
2015-Aug-28 07:33N 55°56' E 012°41'2 1.5
2015-Aug-28 06:33N 55°57' E 012°43'3 2.6
2015-Aug-28 05:31N 55°60' E 012°45'0 0.0
2015-Aug-28 04:31N 55°60' E 012°45'0 0.0
2015-Aug-28 03:33N 55°60' E 012°45'0 0.0
2015-Aug-28 02:33N 55°60' E 012°45'0 0.0
2015-Aug-28 01:30N 55°60' E 012°45'0 0.0
2015-Aug-28 00:33N 55°60' E 012°45'0 0.0
2015-Aug-27 23:33N 55°60' E 012°45'0 0.0
2015-Aug-27 22:33N 55°60' E 012°45'0 0.0
2015-Aug-27 21:33N 55°60' E 012°45'0 0.0
2015-Aug-27 20:33N 55°60' E 012°45'0 0.0
2015-Aug-27 19:25N 55°60' E 012°45'0 0.0
2015-Aug-27 18:31N 55°60' E 012°45'0 0.0
2015-Aug-27 17:33N 55°60' E 012°45'0 0.0
2015-Aug-27 16:31N 55°60' E 012°45'0 0.0
2015-Aug-27 15:31N 55°60' E 012°45'0 0.0
2015-Aug-27 14:31N 55°60' E 012°45'0 0.0
2015-Aug-27 13:31N 55°60' E 012°45'0 0.0
2015-Aug-27 12:33N 55°60' E 012°45'0 0.0
2015-Aug-27 11:31N 55°60' E 012°45'0 0.0
2015-Aug-27 10:33N 55°60' E 012°45'0 0.0
2015-Aug-27 09:31N 55°60' E 012°45'0 0.0
2015-Aug-27 08:25N 55°60' E 012°45'0 0.0
2015-Aug-27 07:31N 55°60' E 012°45'0 0.0
2015-Aug-27 06:33N 55°60' E 012°45'0 0.0
2015-Aug-27 05:31N 55°60' E 012°45'0 0.0
2015-Aug-27 04:19N 55°60' E 012°45'0 0.0
2015-Aug-27 03:28N 55°60' E 012°45'0 0.0
2015-Aug-27 02:33N 55°60' E 012°45'0 0.0
2015-Aug-27 01:28N 55°60' E 012°45'0 0.0
2015-Aug-27 00:33N 55°60' E 012°45'0 0.0
2015-Aug-26 23:33N 55°60' E 012°45'0 0.0
2015-Aug-26 22:33N 55°60' E 012°45'0 0.0
2015-Aug-26 21:31N 55°60' E 012°45'0 0.0
2015-Aug-26 20:31N 55°60' E 012°45'0 0.0
2015-Aug-26 19:33N 55°60' E 012°45'0 0.0
2015-Aug-26 18:33N 55°60' E 012°45'0 0.0
2015-Aug-26 17:33N 55°60' E 012°45'0 0.0
2015-Aug-26 16:33N 55°60' E 012°45'0 0.0
2015-Aug-26 15:33N 55°60' E 012°45'0 0.0
2015-Aug-26 14:31N 55°60' E 012°45'0 0.0
2015-Aug-26 13:31N 55°60' E 012°45'0 0.0
2015-Aug-26 12:31N 55°60' E 012°45'0 0.0
2015-Aug-26 11:33N 55°60' E 012°45'0 0.0
2015-Aug-26 10:31N 55°60' E 012°45'0 0.0
2015-Aug-26 09:30N 55°60' E 012°45'0 0.0
2015-Aug-26 08:33N 55°60' E 012°45'0 0.0
2015-Aug-26 07:30N 55°60' E 012°45'0 0.0
2015-Aug-26 06:31N 55°60' E 012°45'0 0.0
2015-Aug-26 05:31N 55°60' E 012°45'0 0.0
2015-Aug-26 04:31N 55°60' E 012°45'0 0.0
2015-Aug-26 03:31N 55°60' E 012°45'0 0.0
2015-Aug-26 02:31N 55°60' E 012°45'0 0.0
2015-Aug-26 01:31N 55°60' E 012°45'0 0.0
2015-Aug-26 00:32N 55°60' E 012°45'0 0.0
2015-Aug-25 23:32N 55°60' E 012°45'0 0.0
2015-Aug-25 22:32N 55°60' E 012°45'0 0.0
2015-Aug-25 21:32N 55°60' E 012°45'0 0.0
2015-Aug-25 20:32N 55°60' E 012°45'0 0.0
2015-Aug-25 19:25N 55°60' E 012°45'0 0.0
2015-Aug-25 18:28N 55°60' E 012°45'0 0.0
2015-Aug-25 17:28N 55°60' E 012°45'0 0.0
2015-Aug-25 16:29N 55°60' E 012°45'0 0.0
2015-Aug-25 15:31N 55°60' E 012°45'0 0.0
2015-Aug-25 14:31N 55°60' E 012°45'0 0.0
2015-Aug-25 13:32N 55°60' E 012°45'0 0.0
2015-Aug-25 12:33N 55°60' E 012°45'0 0.0
2015-Aug-25 11:33N 55°60' E 012°45'0 0.0
2015-Aug-25 10:32N 55°60' E 012°45'0 0.0
2015-Aug-25 09:31N 55°60' E 012°45'0 0.0
2015-Aug-25 08:20N 55°60' E 012°45'0 0.0
2015-Aug-25 07:29N 55°60' E 012°45'0 0.0
2015-Aug-25 06:32N 55°60' E 012°45'0 0.0
2015-Aug-25 05:32N 55°60' E 012°45'0 0.0
2015-Aug-25 04:29N 55°60' E 012°45'0 0.0
2015-Aug-25 03:32N 55°60' E 012°45'0 0.0
2015-Aug-25 02:34N 55°60' E 012°45'0 0.0
2015-Aug-25 01:32N 55°60' E 012°45'0 0.0
2015-Aug-25 00:32N 55°60' E 012°45'0 0.0
2015-Aug-24 23:32N 55°60' E 012°45'0 0.0
2015-Aug-24 22:32N 55°60' E 012°45'0 0.0
2015-Aug-24 21:28N 55°60' E 012°45'0 0.0
2015-Aug-24 20:31N 55°60' E 012°45'0 0.0
2015-Aug-24 19:31N 55°60' E 012°45'0 0.0
2015-Aug-24 18:29N 55°60' E 012°45'0 0.0
2015-Aug-24 17:31N 55°60' E 012°45'0 0.0
2015-Aug-24 16:32N 55°60' E 012°45'0 0.0
2015-Aug-24 15:32N 55°60' E 012°45'0 0.0
2015-Aug-24 14:23N 55°60' E 012°45'0 0.0
2015-Aug-24 13:32N 55°60' E 012°45'0 0.0
2015-Aug-24 12:32N 55°60' E 012°45'0 0.0
2015-Aug-24 11:32N 55°60' E 012°45'0 0.0
2015-Aug-24 10:28N 55°60' E 012°45'0 0.0
2015-Aug-24 09:32N 55°60' E 012°45'0 0.0
2015-Aug-24 08:28N 55°60' E 012°45'0 0.0
2015-Aug-24 07:32N 55°60' E 012°45'0 0.0
2015-Aug-24 06:29N 55°60' E 012°45'0 0.0
2015-Aug-24 05:31N 55°60' E 012°45'0 0.0
2015-Aug-24 04:29N 55°60' E 012°45'0 0.0
2015-Aug-24 03:32N 55°60' E 012°45'0 0.0
2015-Aug-24 02:32N 55°60' E 012°45'0 0.0
2015-Aug-24 01:32N 55°60' E 012°45'0 0.0
2015-Aug-24 00:32N 55°60' E 012°45'0 0.0
2015-Aug-23 23:32N 55°60' E 012°45'0 0.0
2015-Aug-23 22:32N 55°60' E 012°45'0 0.0
2015-Aug-23 21:32N 55°60' E 012°45'0 0.0
2015-Aug-23 20:32N 55°60' E 012°45'0 0.0
2015-Aug-23 19:31N 55°60' E 012°45'0 0.0
2015-Aug-23 18:29N 55°60' E 012°45'0 0.0
2015-Aug-23 17:31N 55°60' E 012°45'0 0.0
2015-Aug-23 16:29N 55°60' E 012°45'0 0.0
2015-Aug-23 15:32N 55°60' E 012°45'0 0.0
2015-Aug-23 14:31N 55°60' E 012°45'0 0.0
2015-Aug-23 13:32N 55°60' E 012°45'5 4.7
2015-Aug-23 12:33N 55°56' E 012°40'1 0.9
2015-Aug-23 11:31N 55°55' E 012°39'0 0.1
2015-Aug-23 10:33N 55°55' E 012°39'4 3.9
2015-Aug-23 09:28N 55°59' E 012°40'0 0.2
2015-Aug-23 08:33N 55°59' E 012°40'1 0.5
2015-Aug-23 07:33N 55°59' E 012°41'0 0.1
2015-Aug-23 06:33N 55°59' E 012°41'2 1.9
2015-Aug-23 05:29N 55°60' E 012°45'0 0.0
2015-Aug-23 04:29N 55°60' E 012°45'0 0.0
2015-Aug-23 03:32N 55°60' E 012°45'0 0.0
2015-Aug-23 02:32N 55°60' E 012°45'0 0.0
2015-Aug-23 01:32N 55°60' E 012°45'0 0.0
2015-Aug-23 00:32N 55°60' E 012°45'0 0.0
2015-Aug-22 23:32N 55°60' E 012°45'0 0.0
2015-Aug-22 22:10N 55°60' E 012°45'0 0.0
2015-Aug-22 20:31N 55°60' E 012°45'0 0.0
2015-Aug-22 18:18N 55°60' E 012°45'0 0.0
2015-Aug-22 17:19N 55°60' E 012°45'0 0.0
2015-Aug-22 16:15N 55°60' E 012°45'0 0.0
2015-Aug-22 15:07N 55°60' E 012°45'0 0.0
2015-Aug-22 14:33N 55°60' E 012°45'0 0.0
2015-Aug-22 13:31N 55°60' E 012°45'0 0.0
2015-Aug-22 12:31N 55°60' E 012°45'0 0.0
2015-Aug-22 11:32N 55°60' E 012°45'1 1.5
2015-Aug-22 10:33N 55°59' E 012°42'2 1.6
2015-Aug-22 09:32N 56°01' E 012°42'0 0.4
2015-Aug-22 08:32N 56°01' E 012°41'0 0.5
2015-Aug-22 07:33N 56°00' E 012°41'1 1.0
2015-Aug-22 06:31N 55°60' E 012°42'1 1.4
2015-Aug-22 05:33N 55°60' E 012°45'0 0.0
2015-Aug-22 04:33N 55°60' E 012°45'0 0.0
2015-Aug-22 03:32N 55°60' E 012°45'0 0.0
2015-Aug-22 02:33N 55°60' E 012°45'0 0.0
2015-Aug-22 01:33N 55°60' E 012°45'0 0.0
2015-Aug-22 00:29N 55°60' E 012°45'0 0.0
2015-Aug-21 23:30N 55°60' E 012°45'0 0.0
2015-Aug-21 22:33N 55°60' E 012°45'0 0.0
2015-Aug-21 21:33N 55°60' E 012°45'0 0.0
2015-Aug-21 20:30N 55°60' E 012°45'0 0.0
2015-Aug-21 19:33N 55°60' E 012°45'0 0.0
2015-Aug-21 18:33N 55°60' E 012°45'0 0.0
2015-Aug-21 17:33N 55°60' E 012°45'0 0.0
2015-Aug-21 16:33N 55°60' E 012°45'0 0.0
2015-Aug-21 15:33N 55°60' E 012°45'0 0.0
2015-Aug-21 14:32N 55°60' E 012°45'2 2.3
2015-Aug-21 13:32N 55°57' E 012°44'1 1.0
2015-Aug-21 12:33N 55°58' E 012°44'4 4.0
2015-Aug-21 11:33N 55°54' E 012°43'5 5.2
2015-Aug-21 10:31N 55°60' E 012°45'0 0.0
2015-Aug-21 09:33N 55°60' E 012°45'0 0.0
2015-Aug-21 06:27N 55°60' E 012°45'0 0.0
2015-Aug-21 05:18N 55°60' E 012°45'0 0.0
2015-Aug-21 04:03N 55°60' E 012°45'0 0.0
2015-Aug-21 03:33N 55°60' E 012°45'0 0.0
2015-Aug-21 01:28N 55°60' E 012°45'0 0.0
2015-Aug-21 00:32N 55°60' E 012°45'0 0.0
2015-Aug-20 23:26N 55°60' E 012°45'0 0.0
2015-Aug-20 22:33N 55°60' E 012°45'0 0.0
2015-Aug-20 20:24N 55°60' E 012°45'0 0.0
2015-Aug-20 17:28N 55°60' E 012°45'0 0.0
2015-Aug-20 16:30N 55°60' E 012°45'0 0.0
2015-Aug-20 15:32N 55°60' E 012°45'0 0.0
2015-Aug-20 14:33N 55°60' E 012°45'0 0.2
2015-Aug-20 13:33N 55°59' E 012°44'0 0.2
2015-Aug-20 12:10N 55°60' E 012°45'0 0.0
2015-Aug-20 08:03N 55°60' E 012°45'0 0.0
2015-Aug-20 06:33N 55°60' E 012°45'0 0.0
2015-Aug-20 05:28N 55°60' E 012°45'0 0.0
2015-Aug-20 04:31N 55°60' E 012°45'0 0.0
2015-Aug-20 03:13N 55°60' E 012°45'0 0.0
2015-Aug-20 02:20N 55°60' E 012°45'0 0.0
2015-Aug-20 01:31N 55°60' E 012°45'0 0.0
2015-Aug-20 00:06N 55°60' E 012°45'0 0.0
2015-Aug-19 23:24N 55°60' E 012°45'0 0.0
2015-Aug-19 22:30N 55°60' E 012°45'  
Track history (hours):
 
Tides and Currents Weather Stations Pressure Air Temp Water Temp Dewpoint Dewpoint Depression Visibility Wind Speed Wind Dir Waves Ship Positions

Siam

Last reported at 2015-Aug-29 20:33 UTC. Time now 2015-Aug-29 21:04 UTC.
Position N 55°60' E 012°45'.

Length 22 m.

Type: Passenger vessel. MMSI: 265572320.

Date/timePositionNaut miles runAvg speedWind from/ knotsBaromVisibWave heightAir tempDewpointWater temp
2015-Aug-29 20:33N 55°60' E 012°45'0 0.0
2015-Aug-29 19:33N 55°60' E 012°45'0 0.0
2015-Aug-29 18:33N 55°60' E 012°45'0 0.0
2015-Aug-29 17:30N 55°60' E 012°45'0 0.2
2015-Aug-29 16:33N 55°59' E 012°44'5 4.8
2015-Aug-29 15:33N 55°55' E 012°45'1 0.7
2015-Aug-29 14:26N 55°54' E 012°43'1 1.6
2015-Aug-29 13:33N 55°53' E 012°46'1 1.2
2015-Aug-29 12:29N 55°54' E 012°44'4 4.5
2015-Aug-29 11:33N 55°58' E 012°45'1 1.3
2015-Aug-29 10:28N 55°60' E 012°45'3 3.2
2015-Aug-29 09:31N 55°57' E 012°42'1 1.1
2015-Aug-29 08:32N 55°58' E 012°42'1 0.8
2015-Aug-29 07:32N 55°59' E 012°42'0 0.3
2015-Aug-29 06:33N 55°59' E 012°42'2 1.5
2015-Aug-29 05:32N 55°60' E 012°45'0 0.0
2015-Aug-29 04:32N 55°60' E 012°45'0 0.0
2015-Aug-29 03:29N 55°60' E 012°45'0 0.0
2015-Aug-29 02:29N 55°60' E 012°45'0 0.0
2015-Aug-29 01:32N 55°60' E 012°45'0 0.0
2015-Aug-29 00:29N 55°60' E 012°45'0 0.0
2015-Aug-28 23:29N 55°60' E 012°45'0 0.0
2015-Aug-28 22:29N 55°60' E 012°45'0 0.0
2015-Aug-28 21:32N 55°60' E 012°45'0 0.0
2015-Aug-28 20:29N 55°60' E 012°45'0 0.0
2015-Aug-28 19:29N 55°60' E 012°45'0 0.0
2015-Aug-28 18:29N 55°60' E 012°45'0 0.0
2015-Aug-28 17:32N 55°60' E 012°45'0 0.0
2015-Aug-28 16:32N 55°60' E 012°45'0 0.0
2015-Aug-28 15:23N 55°60' E 012°45'0 0.0
2015-Aug-28 14:26N 55°60' E 012°45'0 0.0
2015-Aug-28 13:29N 55°60' E 012°45'0 0.0
2015-Aug-28 12:17N 55°60' E 012°45'4 5.6
2015-Aug-28 11:33N 55°56' E 012°42'0 0.1
2015-Aug-28 10:33N 55°56' E 012°42'0 0.3
2015-Aug-28 09:32N 55°56' E 012°41'1 0.8
2015-Aug-28 08:33N 55°56' E 012°42'1 0.6
2015-Aug-28 07:33N 55°56' E 012°41'2 1.5
2015-Aug-28 06:33N 55°57' E 012°43'3 2.6
2015-Aug-28 05:31N 55°60' E 012°45'0 0.0
2015-Aug-28 04:31N 55°60' E 012°45'0 0.0
2015-Aug-28 03:33N 55°60' E 012°45'0 0.0
2015-Aug-28 02:33N 55°60' E 012°45'0 0.0
2015-Aug-28 01:30N 55°60' E 012°45'0 0.0
2015-Aug-28 00:33N 55°60' E 012°45'0 0.0
2015-Aug-27 23:33N 55°60' E 012°45'0 0.0
2015-Aug-27 22:33N 55°60' E 012°45'0 0.0
2015-Aug-27 21:33N 55°60' E 012°45'0 0.0
2015-Aug-27 20:33N 55°60' E 012°45'0 0.0
2015-Aug-27 19:25N 55°60' E 012°45'0 0.0
2015-Aug-27 18:31N 55°60' E 012°45'0 0.0
2015-Aug-27 17:33N 55°60' E 012°45'0 0.0
2015-Aug-27 16:31N 55°60' E 012°45'0 0.0
2015-Aug-27 15:31N 55°60' E 012°45'0 0.0
2015-Aug-27 14:31N 55°60' E 012°45'0 0.0
2015-Aug-27 13:31N 55°60' E 012°45'0 0.0
2015-Aug-27 12:33N 55°60' E 012°45'0 0.0
2015-Aug-27 11:31N 55°60' E 012°45'0 0.0
2015-Aug-27 10:33N 55°60' E 012°45'0 0.0
2015-Aug-27 09:31N 55°60' E 012°45'0 0.0
2015-Aug-27 08:25N 55°60' E 012°45'0 0.0
2015-Aug-27 07:31N 55°60' E 012°45'0 0.0
2015-Aug-27 06:33N 55°60' E 012°45'0 0.0
2015-Aug-27 05:31N 55°60' E 012°45'0 0.0
2015-Aug-27 04:19N 55°60' E 012°45'0 0.0
2015-Aug-27 03:28N 55°60' E 012°45'0 0.0
2015-Aug-27 02:33N 55°60' E 012°45'0 0.0
2015-Aug-27 01:28N 55°60' E 012°45'0 0.0
2015-Aug-27 00:33N 55°60' E 012°45'0 0.0
2015-Aug-26 23:33N 55°60' E 012°45'0 0.0
2015-Aug-26 22:33N 55°60' E 012°45'0 0.0
2015-Aug-26 21:31N 55°60' E 012°45'0 0.0
2015-Aug-26 20:31N 55°60' E 012°45'0 0.0
2015-Aug-26 19:33N 55°60' E 012°45'0 0.0
2015-Aug-26 18:33N 55°60' E 012°45'0 0.0
2015-Aug-26 17:33N 55°60' E 012°45'0 0.0
2015-Aug-26 16:33N 55°60' E 012°45'0 0.0
2015-Aug-26 15:33N 55°60' E 012°45'0 0.0
2015-Aug-26 14:31N 55°60' E 012°45'0 0.0
2015-Aug-26 13:31N 55°60' E 012°45'0 0.0
2015-Aug-26 12:31N 55°60' E 012°45'0 0.0
2015-Aug-26 11:33N 55°60' E 012°45'0 0.0
2015-Aug-26 10:31N 55°60' E 012°45'0 0.0
2015-Aug-26 09:30N 55°60' E 012°45'0 0.0
2015-Aug-26 08:33N 55°60' E 012°45'0 0.0
2015-Aug-26 07:30N 55°60' E 012°45'0 0.0
2015-Aug-26 06:31N 55°60' E 012°45'0 0.0
2015-Aug-26 05:31N 55°60' E 012°45'0 0.0
2015-Aug-26 04:31N 55°60' E 012°45'0 0.0
2015-Aug-26 03:31N 55°60' E 012°45'0 0.0
2015-Aug-26 02:31N 55°60' E 012°45'0 0.0
2015-Aug-26 01:31N 55°60' E 012°45'0 0.0
2015-Aug-26 00:32N 55°60' E 012°45'0 0.0
2015-Aug-25 23:32N 55°60' E 012°45'0 0.0
2015-Aug-25 22:32N 55°60' E 012°45'0 0.0
2015-Aug-25 21:32N 55°60' E 012°45'0 0.0
2015-Aug-25 20:32N 55°60' E 012°45'0 0.0
2015-Aug-25 19:25N 55°60' E 012°45'0 0.0
2015-Aug-25 18:28N 55°60' E 012°45'0 0.0
2015-Aug-25 17:28N 55°60' E 012°45'0 0.0
2015-Aug-25 16:29N 55°60' E 012°45'0 0.0
2015-Aug-25 15:31N 55°60' E 012°45'0 0.0
2015-Aug-25 14:31N 55°60' E 012°45'0 0.0
2015-Aug-25 13:32N 55°60' E 012°45'0 0.0
2015-Aug-25 12:33N 55°60' E 012°45'0 0.0
2015-Aug-25 11:33N 55°60' E 012°45'0 0.0
2015-Aug-25 10:32N 55°60' E 012°45'0 0.0
2015-Aug-25 09:31N 55°60' E 012°45'0 0.0
2015-Aug-25 08:20N 55°60' E 012°45'0 0.0
2015-Aug-25 07:29N 55°60' E 012°45'0 0.0
2015-Aug-25 06:32N 55°60' E 012°45'0 0.0
2015-Aug-25 05:32N 55°60' E 012°45'0 0.0
2015-Aug-25 04:29N 55°60' E 012°45'0 0.0
2015-Aug-25 03:32N 55°60' E 012°45'0 0.0
2015-Aug-25 02:34N 55°60' E 012°45'0 0.0
2015-Aug-25 01:32N 55°60' E 012°45'0 0.0
2015-Aug-25 00:32N 55°60' E 012°45'0 0.0
2015-Aug-24 23:32N 55°60' E 012°45'0 0.0
2015-Aug-24 22:32N 55°60' E 012°45'0 0.0
2015-Aug-24 21:28N 55°60' E 012°45'0 0.0
2015-Aug-24 20:31N 55°60' E 012°45'0 0.0
2015-Aug-24 19:31N 55°60' E 012°45'0 0.0
2015-Aug-24 18:29N 55°60' E 012°45'0 0.0
2015-Aug-24 17:31N 55°60' E 012°45'0 0.0
2015-Aug-24 16:32N 55°60' E 012°45'0 0.0
2015-Aug-24 15:32N 55°60' E 012°45'0 0.0
2015-Aug-24 14:23N 55°60' E 012°45'0 0.0
2015-Aug-24 13:32N 55°60' E 012°45'0 0.0
2015-Aug-24 12:32N 55°60' E 012°45'0 0.0
2015-Aug-24 11:32N 55°60' E 012°45'0 0.0
2015-Aug-24 10:28N 55°60' E 012°45'0 0.0
2015-Aug-24 09:32N 55°60' E 012°45'0 0.0
2015-Aug-24 08:28N 55°60' E 012°45'0 0.0
2015-Aug-24 07:32N 55°60' E 012°45'0 0.0
2015-Aug-24 06:29N 55°60' E 012°45'0 0.0
2015-Aug-24 05:31N 55°60' E 012°45'0 0.0
2015-Aug-24 04:29N 55°60' E 012°45'0 0.0
2015-Aug-24 03:32N 55°60' E 012°45'0 0.0
2015-Aug-24 02:32N 55°60' E 012°45'0 0.0
2015-Aug-24 01:32N 55°60' E 012°45'0 0.0
2015-Aug-24 00:32N 55°60' E 012°45'0 0.0
2015-Aug-23 23:32N 55°60' E 012°45'0 0.0
2015-Aug-23 22:32N 55°60' E 012°45'0 0.0
2015-Aug-23 21:32N 55°60' E 012°45'0 0.0
2015-Aug-23 20:32N 55°60' E 012°45'0 0.0
2015-Aug-23 19:31N 55°60' E 012°45'0 0.0
2015-Aug-23 18:29N 55°60' E 012°45'0 0.0
2015-Aug-23 17:31N 55°60' E 012°45'0 0.0
2015-Aug-23 16:29N 55°60' E 012°45'0 0.0
2015-Aug-23 15:32N 55°60' E 012°45'0 0.0
2015-Aug-23 14:31N 55°60' E 012°45'0 0.0
2015-Aug-23 13:32N 55°60' E 012°45'5 4.7
2015-Aug-23 12:33N 55°56' E 012°40'1 0.9
2015-Aug-23 11:31N 55°55' E 012°39'0 0.1
2015-Aug-23 10:33N 55°55' E 012°39'4 3.9
2015-Aug-23 09:28N 55°59' E 012°40'0 0.2
2015-Aug-23 08:33N 55°59' E 012°40'1 0.5
2015-Aug-23 07:33N 55°59' E 012°41'0 0.1
2015-Aug-23 06:33N 55°59' E 012°41'2 1.9
2015-Aug-23 05:29N 55°60' E 012°45'0 0.0
2015-Aug-23 04:29N 55°60' E 012°45'0 0.0
2015-Aug-23 03:32N 55°60' E 012°45'0 0.0
2015-Aug-23 02:32N 55°60' E 012°45'0 0.0
2015-Aug-23 01:32N 55°60' E 012°45'0 0.0
2015-Aug-23 00:32N 55°60' E 012°45'0 0.0
2015-Aug-22 23:32N 55°60' E 012°45'0 0.0
2015-Aug-22 22:10N 55°60' E 012°45'0 0.0
2015-Aug-22 20:31N 55°60' E 012°45'0 0.0
2015-Aug-22 18:18N 55°60' E 012°45'0 0.0
2015-Aug-22 17:19N 55°60' E 012°45'0 0.0
2015-Aug-22 16:15N 55°60' E 012°45'0 0.0
2015-Aug-22 15:07N 55°60' E 012°45'0 0.0
2015-Aug-22 14:33N 55°60' E 012°45'0 0.0
2015-Aug-22 13:31N 55°60' E 012°45'0 0.0
2015-Aug-22 12:31N 55°60' E 012°45'0 0.0
2015-Aug-22 11:32N 55°60' E 012°45'1 1.5
2015-Aug-22 10:33N 55°59' E 012°42'2 1.6
2015-Aug-22 09:32N 56°01' E 012°42'0 0.4
2015-Aug-22 08:32N 56°01' E 012°41'0 0.5
2015-Aug-22 07:33N 56°00' E 012°41'1 1.0
2015-Aug-22 06:31N 55°60' E 012°42'1 1.4
2015-Aug-22 05:33N 55°60' E 012°45'0 0.0
2015-Aug-22 04:33N 55°60' E 012°45'0 0.0
2015-Aug-22 03:32N 55°60' E 012°45'0 0.0
2015-Aug-22 02:33N 55°60' E 012°45'0 0.0
2015-Aug-22 01:33N 55°60' E 012°45'0 0.0
2015-Aug-22 00:29N 55°60' E 012°45'0 0.0
2015-Aug-21 23:30N 55°60' E 012°45'0 0.0
2015-Aug-21 22:33N 55°60' E 012°45'0 0.0
2015-Aug-21 21:33N 55°60' E 012°45'0 0.0
2015-Aug-21 20:30N 55°60' E 012°45'0 0.0
2015-Aug-21 19:33N 55°60' E 012°45'0 0.0
2015-Aug-21 18:33N 55°60' E 012°45'0 0.0
2015-Aug-21 17:33N 55°60' E 012°45'0 0.0
2015-Aug-21 16:33N 55°60' E 012°45'0 0.0
2015-Aug-21 15:33N 55°60' E 012°45'0 0.0
2015-Aug-21 14:32N 55°60' E 012°45'2 2.3
2015-Aug-21 13:32N 55°57' E 012°44'1 1.0
2015-Aug-21 12:33N 55°58' E 012°44'4 4.0
2015-Aug-21 11:33N 55°54' E 012°43'5 5.2
2015-Aug-21 10:31N 55°60' E 012°45'0 0.0
2015-Aug-21 09:33N 55°60' E 012°45'0 0.0
2015-Aug-21 06:27N 55°60' E 012°45'0 0.0
2015-Aug-21 05:18N 55°60' E 012°45'0 0.0
2015-Aug-21 04:03N 55°60' E 012°45'0 0.0
2015-Aug-21 03:33N 55°60' E 012°45'0 0.0
2015-Aug-21 01:28N 55°60' E 012°45'0 0.0
2015-Aug-21 00:32N 55°60' E 012°45'0 0.0
2015-Aug-20 23:26N 55°60' E 012°45'0 0.0
2015-Aug-20 22:33N 55°60' E 012°45'0 0.0
2015-Aug-20 20:24N 55°60' E 012°45'0 0.0
2015-Aug-20 17:28N 55°60' E 012°45'0 0.0
2015-Aug-20 16:30N 55°60' E 012°45'0 0.0
2015-Aug-20 15:32N 55°60' E 012°45'0 0.0
2015-Aug-20 14:33N 55°60' E 012°45'0 0.2
2015-Aug-20 13:33N 55°59' E 012°44'0 0.2
2015-Aug-20 12:10N 55°60' E 012°45'0 0.0
2015-Aug-20 08:03N 55°60' E 012°45'0 0.0
2015-Aug-20 06:33N 55°60' E 012°45'0 0.0
2015-Aug-20 05:28N 55°60' E 012°45'0 0.0
2015-Aug-20 04:31N 55°60' E 012°45'0 0.0
2015-Aug-20 03:13N 55°60' E 012°45'0 0.0
2015-Aug-20 02:20N 55°60' E 012°45'0 0.0
2015-Aug-20 01:31N 55°60' E 012°45'0 0.0
2015-Aug-20 00:06N 55°60' E 012°45'0 0.0
2015-Aug-19 23:24N 55°60' E 012°45'0 0.0
2015-Aug-19 22:30N 55°60' E 012°45'  

Dump ship's entire track history